North Sudbury, Massachusetts
Current Conditions -  °F | °C
As of 4:56 PM on Thursday 27 Nov 2014 (Local Time) from KBED Reporting Station
Overcast Overcast  
Wind Chill: 32°   Ceiling: 2100
Heat Index: 32°   Visibility: 10mi
Dew Point: 29°   Wind: 3mph
Humidity: 88%   Direction: 330°NNW
Pressure: 29.97"   Gusts: NA
Location:  42.3844°N, 71.4233°W
Report Text: KBED 272156Z 33003KT 10SM OVC021 00/M02 A2997 RMK AO2 SLP165 T00001017
Loading
Personal Weather Stations






























Interactive Weather Map New forecast layout! Learn more

10-Day Weather Forecast

Advertisements
Track Severe Weather on mobile